Latest Weather Observations for Pound Creek

IDV60801

Issued at 3:52 pm EDT Tuesday 29 November 2022 (issued every 10 minutes, with the page automatically refreshed every 10 minutes)

About weather observations | Map of weather stations | Latest weather observations for VIC | Other Formats
Station Details ID: 085099 Name: POUND CREEK Lat: -38.63 Lon: 145.81 Height: 3.0 m
Data from the previous 72 hours. | See also: Recent months at Pound Creek
Date/Time
EDT
Temp
°C
App
Temp
°C
Dew
Point
°C
Rel
Hum
%
Delta-T
°C
Wind Press
QNH
hPa
Press
MSL
hPa
Rain since
9am
mm
Dir  Spd
km/h
Gust
km/h
Spd
kts
Gust
kts
29/03:30pm 16.6 12.8 9.8 64 3.6 WSW 20 28 11 15 1016.5 1016.5 0.0
29/03:00pm 16.5 12.2 9.4 63 3.7 WSW 22 30 12 16 1016.7 1016.7 0.0
29/02:30pm 16.8 12.1 9.2 61 3.9 WSW 24 33 13 18 1016.7 1016.7 0.0
29/02:00pm 16.8 12.1 9.2 61 3.9 WSW 24 35 13 19 1016.8 1016.8 0.0
29/01:30pm 16.4 11.8 9.6 64 3.5 WSW 24 32 13 17 1016.7 1016.7 0.0
29/01:00pm 16.3 11.5 8.8 61 3.8 WSW 24 37 13 20 1016.7 1016.7 0.0
29/12:30pm 16.3 11.5 10.4 68 3.1 WSW 26 37 14 20 1016.7 1016.7 0.0
29/12:00pm 15.9 10.4 9.3 65 3.4 WSW 28 35 15 19 1016.4 1016.4 0.0
29/11:30am 16.3 11.3 9.7 65 3.4 WSW 26 35 14 19 1016.2 1016.2 0.0
29/11:00am 16.2 11.4 10.3 68 3.1 WSW 26 35 14 19 1015.9 1015.9 0.0
29/10:30am 15.3 9.4 9.0 66 3.2 WSW 30 37 16 20 1015.6 1015.6 0.0
29/10:00am 15.4 10.1 9.7 69 3.0 WSW 28 35 15 19 1015.3 1015.3 0.0
29/09:30am 14.6 9.3 8.5 67 3.1 WSW 26 37 14 20 1015.1 1015.1 0.0
29/09:00am 14.4 8.9 7.5 63 3.4 WSW 26 37 14 20 1014.6 1014.6 3.4
29/08:30am 14.7 9.6 9.3 70 2.8 WSW 26 35 14 19 1013.9 1013.9 3.4
29/08:00am 14.1 9.1 9.5 74 2.4 WSW 26 35 14 19 1013.3 1013.3 3.4
29/07:30am 13.5 8.5 9.4 76 2.1 WSW 26 35 14 19 1012.8 1012.8 3.4
29/07:00am 13.2 8.6 9.6 79 1.8 WSW 24 35 13 19 1012.3 1012.3 3.4
29/06:30am 11.7 8.9 9.9 89 0.9 W 15 22 8 12 1012.0 1012.0 3.4
29/06:00am 12.0 9.2 10.1 88 1.0 W 15 19 8 10 1011.6 1011.6 3.4
29/05:30am 11.6 9.0 9.3 86 1.2 W 13 17 7 9 1011.0 1011.0 3.4
29/05:00am 12.6 8.2 10.3 86 1.2 WSW 24 35 13 19 1010.7 1010.7 3.4
29/04:30am 12.4 8.7 10.1 86 1.2 WSW 20 28 11 15 1010.3 1010.3 3.4
29/04:00am 11.3 8.2 10.4 94 0.5 W 17 26 9 14 1010.1 1010.1 3.4
29/03:30am 11.7 9.8 11.7 100 0.0 WNW 13 19 7 10 1009.9 1009.9 3.4
29/03:00am 11.4 9.0 11.4 100 0.0 WNW 15 20 8 11 1009.9 1009.9 3.4
29/02:30am 11.4 9.4 11.4 100 0.0 WNW 13 19 7 10 1009.8 1009.8 3.4
29/02:00am 11.7 8.4 11.7 100 0.0 WSW 20 28 11 15 1009.6 1009.6 3.2
29/01:30am 11.7 7.3 11.7 100 0.0 SW 26 39 14 21 1009.5 1009.5 2.2
29/01:00am 11.7 6.4 11.4 98 0.2 WSW 30 46 16 25 1009.4 1009.4 0.6
29/12:57am 12.1 7.6 11.5 96 0.3 W 26 46 14 25 1009.5 1009.5 0.6
29/12:30am 13.3 8.1 12.7 96 0.3 W 32 44 17 24 1008.7 1008.7 0.4
29/12:00am 13.1 9.5 12.0 93 0.6 W 22 32 12 17 1008.6 1008.6 0.2
 
Date/Time
EDT
Temp
°C
App
Temp
°C
Dew
Point
°C
Rel
Hum
%
Delta-T
°C
Wind Press
QNH
hPa
Press
MSL
hPa
Rain since
9am
mm
Dir  Spd
km/h
Gust
km/h
Spd
kts
Gust
kts
28/11:30pm 13.4 10.7 12.9 97 0.3 W 19 35 10 19 1008.4 1008.4 0.2
28/11:00pm 13.4 10.6 12.5 94 0.5 WNW 19 24 10 13 1008.4 1008.4 0.0
28/10:30pm 13.5 11.6 13.0 97 0.3 WNW 15 28 8 15 1008.4 1008.4 0.0
28/10:00pm 13.4 11.4 12.8 96 0.3 WNW 15 24 8 13 1008.2 1008.2 0.0
28/09:30pm 13.7 10.6 12.3 91 0.8 W 20 33 11 18 1008.1 1008.1 0.0
28/09:00pm 13.5 10.4 11.6 88 1.0 W 19 28 10 15 1007.6 1007.6 0.0
28/08:30pm 14.2 10.7 12.1 87 1.1 W 22 35 12 19 1007.5 1007.5 0.0
28/08:00pm 14.9 11.9 12.0 83 1.6 W 19 26 10 14 1007.2 1007.2 0.0
28/07:30pm 15.3 12.2 11.5 78 2.0 WNW 19 30 10 16 1007.0 1007.0 0.0
28/07:00pm 15.6 12.3 11.6 77 2.2 W 20 28 11 15 1006.7 1006.7 0.0
28/06:30pm 16.1 11.8 10.8 71 2.8 W 24 35 13 19 1006.4 1006.4 0.0
28/06:00pm 16.1 11.3 10.4 69 3.0 W 26 33 14 18 1006.1 1006.1 0.0
28/05:30pm 16.4 13.3 11.6 73 2.6 WNW 19 28 10 15 1006.3 1006.3 0.0
28/05:00pm 15.8 12.4 11.2 74 2.5 WNW 20 30 11 16 1006.5 1006.5 0.0
28/04:30pm 16.8 12.5 10.6 67 3.3 WNW 24 35 13 19 1006.3 1006.3 0.0
28/04:00pm 16.5 12.5 10.6 68 3.1 WNW 22 33 12 18 1006.6 1006.6 0.0
28/03:30pm 15.7 10.6 10.7 72 2.7 W 28 37 15 20 1006.8 1006.8 0.0
28/03:00pm 15.7 12.0 10.2 70 2.9 W 20 33 11 18 1006.8 1006.8 0.0
28/02:30pm 17.0 11.3 8.4 57 4.4 W 28 44 15 24 1007.0 1007.0 0.0
28/02:00pm 16.9 12.0 8.6 58 4.3 W 24 39 13 21 1007.2 1007.2 0.0
28/01:30pm 16.7 11.7 10.8 68 3.2 W 28 37 15 20 1007.5 1007.5 0.0
28/01:00pm 16.2 10.2 8.7 61 3.8 W 30 43 16 23 1007.6 1007.6 0.0
28/12:30pm 16.5 11.5 9.4 63 3.7 W 26 39 14 21 1007.7 1007.7 0.0
28/12:00pm 15.6 10.4 8.8 64 3.5 W 26 39 14 21 1007.6 1007.6 0.0
28/11:30am 16.0 11.5 9.9 67 3.2 WNW 24 35 13 19 1007.7 1007.7 0.0
28/11:00am 15.1 10.5 9.5 69 2.9 W 24 33 13 18 1007.9 1007.9 0.0
28/10:30am 15.2 11.6 10.6 74 2.4 WNW 20 30 11 16 1008.1 1008.1 0.0
28/10:00am 13.1 11.2 10.6 85 1.3 NW 11 19 6 10 1008.2 1008.2 0.0
28/09:30am 12.5 9.9 10.6 88 1.0 WNW 15 26 8 14 1008.0 1008.0 0.0
28/09:00am 11.4 8.7 10.3 93 0.6 WNW 15 26 8 14 1007.9 1007.9 1.4
28/08:30am 11.4 10.1 10.1 92 0.7 WNW 7 13 4 7 1007.7 1007.7 1.2
28/08:00am 10.0 7.5 9.7 98 0.2 NW 13 20 7 11 1007.8 1007.8 1.2
28/07:30am 11.1 9.5 10.2 94 0.5 NW 9 17 5 9 1007.6 1007.6 0.2
28/07:00am 10.7 9.4 10.1 96 0.3 NNW 7 15 4 8 1007.3 1007.3 0.0
28/06:30am 9.9 8.5 9.6 98 0.1 NNW 7 11 4 6 1007.2 1007.2 0.0
28/06:00am 9.4 7.9 9.3 99 0.0 NNW 7 9 4 5 1007.0 1007.0 0.0
28/05:30am 9.8 8.3 9.2 96 0.3 N 7 9 4 5 1006.7 1006.7 0.0
28/05:00am 10.2 8.7 9.3 94 0.4 NNW 7 11 4 6 1006.7 1006.7 0.0
28/04:30am 9.4 7.6 8.0 91 0.7 NNW 7 11 4 6 1006.5 1006.5 0.0
28/04:00am 9.3 7.6 7.4 88 0.9 NNW 6 7 3 4 1006.4 1006.4 0.0
28/03:30am 10.1 8.4 7.5 84 1.2 NW 6 9 3 5 1006.4 1006.4 0.0
28/03:00am 10.6 9.0 8.0 84 1.3 NW 6 9 3 5 1006.3 1006.3 0.0
28/02:30am 10.4 8.9 8.3 87 1.0 NW 6 9 3 5 1006.4 1006.4 0.0
28/02:00am 10.0 8.4 8.9 93 0.5 NNW 7 9 4 5 1006.7 1006.7 0.0
28/01:30am 9.8 8.2 8.6 92 0.6 NNW 7 9 4 5 1006.8 1006.8 0.0
28/01:00am 9.2 7.4 8.1 93 0.5 N 7 11 4 6 1007.0 1007.0 0.0
28/12:30am 9.0 7.2 7.8 92 0.6 NNW 7 11 4 6 1007.2 1007.2 0.0
28/12:00am 9.4 7.5 7.5 88 0.9 NNW 7 11 4 6 1007.3 1007.3 0.0
 
Date/Time
EDT
Temp
°C
App
Temp
°C
Dew
Point
°C
Rel
Hum
%
Delta-T
°C
Wind Press
QNH
hPa
Press
MSL
hPa
Rain since
9am
mm
Dir  Spd
km/h
Gust
km/h
Spd
kts
Gust
kts
27/11:30pm 10.9 7.8 7.4 79 1.7 WNW 13 15 7 8 1007.2 1007.2 0.0
27/11:00pm 11.3 7.9 7.6 78 1.8 W 15 26 8 14 1007.2 1007.2 0.0
27/10:30pm 11.3 8.3 7.6 78 1.8 W 13 26 7 14 1007.2 1007.2 0.0
27/10:00pm 11.4 8.5 8.3 81 1.5 WNW 13 15 7 8 1007.3 1007.3 0.0
27/09:30pm 11.9 7.9 8.2 78 1.8 W 19 28 10 15 1007.0 1007.0 0.0
27/09:00pm 12.6 7.5 7.7 72 2.4 WSW 24 32 13 17 1006.6 1006.6 0.0
27/08:30pm 13.0 8.3 9.1 77 2.0 WSW 24 32 13 17 1006.5 1006.5 0.0
27/08:00pm 13.2 8.9 9.3 77 2.0 WSW 22 33 12 18 1006.2 1006.2 0.0
27/07:30pm 12.9 9.9 10.8 87 1.1 WSW 17 24 9 13 1005.8 1005.8 0.0
27/07:00pm 13.1 9.7 10.5 84 1.4 WSW 19 28 10 15 1005.5 1005.5 0.0
27/06:30pm 12.4 8.7 10.1 86 1.2 W 20 28 11 15 1005.3 1005.3 0.0
27/06:00pm 13.1 8.9 11.0 87 1.1 WSW 24 33 13 18 1004.8 1004.8 0.0
27/05:30pm 13.9 8.6 11.4 85 1.3 WSW 30 43 16 23 1004.6 1004.6 0.0
27/05:00pm 14.3 8.8 10.5 78 2.0 WSW 30 39 16 21 1004.1 1004.1 0.0
27/04:30pm 15.5 11.2 10.9 74 2.4 WSW 24 33 13 18 1003.7 1003.7 0.0
27/04:00pm 16.7 12.3 11.8 73 2.7 WSW 26 37 14 20 1003.7 1003.7 0.0
27/03:30pm 16.4 11.6 8.9 61 3.9 W 24 32 13 17 1003.6 1003.6 0.0
27/03:00pm 15.8 13.0 13.3 85 1.4 WSW 20 28 11 15 1003.8 1003.8 0.0
27/02:30pm 15.2 12.0 13.1 87 1.2 WSW 22 32 12 17 1003.8 1003.8 0.0
27/02:00pm 16.7 13.1 12.0 74 2.6 W 22 30 12 16 1003.8 1003.8 0.0
27/01:30pm 15.4 11.4 10.6 73 2.5 W 22 30 12 16 1003.9 1003.9 0.0
27/01:00pm 16.2 11.9 10.9 71 2.8 W 24 33 13 18 1003.7 1003.7 0.0
27/12:30pm 15.6 11.2 11.8 78 2.1 W 26 39 14 21 1003.7 1003.7 0.0
27/12:00pm 15.9 11.6 11.9 77 2.2 WSW 26 33 14 18 1003.7 1003.7 0.0
27/11:30am 16.1 12.2 12.1 77 2.2 WSW 24 35 13 19 1003.5 1003.5 0.0
27/11:00am 15.3 11.7 13.2 87 1.2 SW 24 35 13 19 1003.5 1003.5 0.0
27/10:30am 15.3 12.6 13.5 89 1.0 SW 20 28 11 15 1003.5 1003.5 0.0
27/10:00am 15.7 12.9 13.2 85 1.4 WSW 20 30 11 16 1003.5 1003.5 0.0
27/09:30am 15.9 14.2 12.6 81 1.8 W 13 19 7 10 1003.4 1003.4 0.0
27/09:00am 15.2 14.0 12.7 85 1.4 W 11 17 6 9 1003.5 1003.5 0.4
27/08:30am 14.7 13.5 12.9 89 1.0 WNW 11 17 6 9 1003.3 1003.3 0.4
27/08:00am 14.2 14.2 13.7 97 0.3 NW 6 9 3 5 1003.2 1003.2 0.4
27/07:30am 13.9 12.9 13.3 96 0.3 WNW 11 17 6 9 1003.1 1003.1 0.4
27/07:00am 13.7 12.7 13.4 98 0.2 W 11 19 6 10 1003.0 1003.0 0.2
27/06:30am 13.9 13.3 13.6 98 0.2 W 9 19 5 10 1002.9 1002.9 0.2
27/06:00am 14.0 14.1 13.8 99 0.1 NNW 6 9 3 5 1002.8 1002.8 0.2
27/05:30am 14.0 12.7 13.7 98 0.2 W 13 19 7 10 1002.7 1002.7 0.2
27/05:00am 12.9 12.3 12.4 97 0.3 NNW 7 11 4 6 1002.7 1002.7 0.2
27/04:30am 14.0 12.8 12.7 92 0.7 WNW 11 15 6 8 1002.5 1002.5 0.2
27/04:00am 14.1 12.1 12.8 92 0.7 W 15 19 8 10 1002.5 1002.5 0.2
27/03:30am 14.4 11.6 13.1 92 0.7 WSW 20 28 11 15 1002.3 1002.3 0.2
27/03:00am 14.6 11.4 13.1 91 0.8 WSW 22 32 12 17 1002.6 1002.6 0.2
27/02:30am 14.6 12.0 13.8 95 0.4 WSW 20 28 11 15 1002.9 1002.9 0.2
27/02:00am 15.0 12.7 14.2 95 0.5 WSW 19 28 10 15 1003.1 1003.1 0.2
27/01:30am 15.4 13.2 14.3 93 0.6 WSW 19 30 10 16 1003.1 1003.1 0.2
27/01:00am 15.7 12.9 14.4 92 0.7 WSW 22 33 12 18 1003.2 1003.2 0.2
27/12:30am 16.6 11.6 13.5 82 1.7 WSW 32 46 17 25 1003.1 1003.1 0.2
27/12:22am 17.5 16.3 15.0 85 1.5 W 15 44 8 24 1002.9 1002.9 0.2
27/12:00am 18.3 18.8 15.6 84 1.6 NW 7 15 4 8 1002.6 1002.6 0.2
 
Date/Time
EDT
Temp
°C
App
Temp
°C
Dew
Point
°C
Rel
Hum
%
Delta-T
°C
Wind Press
QNH
hPa
Press
MSL
hPa
Rain since
9am
mm
Dir  Spd
km/h
Gust
km/h
Spd
kts
Gust
kts
26/11:30pm 18.5 18.6 15.4 82 1.8 NNW 9 15 5 8 1002.6 1002.6 0.2
26/11:00pm 17.9 18.5 15.7 87 1.3 N 7 13 4 7 1002.3 1002.3 0.2
26/10:30pm 17.9 17.7 15.7 87 1.3 N 11 19 6 10 1002.6 1002.6 0.2
26/10:00pm 18.6 17.9 15.5 82 1.8 N 13 22 7 12 1003.2 1003.2 0.2
26/09:30pm 19.0 17.4 15.1 78 2.3 NNW 17 26 9 14 1003.1 1003.1 0.2
26/09:00pm 19.7 18.8 14.9 74 2.8 WNW 13 22 7 12 1003.4 1003.4 0.0
26/08:30pm 20.7 19.9 15.0 70 3.4 WNW 13 28 7 15 1003.3 1003.3 0.0
26/08:00pm 20.2 20.9 16.0 77 2.5 NNE 7 13 4 7 1002.0 1002.0 0.0
26/07:30pm 20.9 20.8 16.1 74 2.9 NE 11 15 6 8 1001.5 1001.5 0.0
26/07:00pm 21.9 22.0 16.6 72 3.2 NE 11 17 6 9 1001.4 1001.4 0.0
26/06:30pm 22.3 23.1 17.4 74 3.0 NE 9 19 5 10 1001.6 1001.6 0.0
26/06:00pm 23.1 22.5 16.6 67 4.0 NE 15 20 8 11 1001.9 1001.9 0.0
26/05:30pm 24.1 25.1 16.9 64 4.4 NNE 7 11 4 6 1002.1 1002.1 0.0
26/05:00pm 25.0 25.9 17.5 63 4.7 NE 9 15 5 8 1002.5 1002.5 0.0
26/04:30pm 26.0 26.7 17.9 61 5.1 NNE 11 19 6 10 1002.9 1002.9 0.0
26/04:00pm 25.2 24.5 15.5 55 5.9 NNE 13 24 7 13 1003.5 1003.5 0.0

Other formats

Comma delimited format used in spreadsheet applications
http://www.bom.gov.au/fwo/IDV60801/IDV60801.94886.axf

JavaScript Object Notation format (JSON) in row-major order
http://www.bom.gov.au/fwo/IDV60801/IDV60801.94886.json

Data quality

Most of these data are generated automatically and are frequently updated. Quality checks on data are not normally performed. It is possible for incorrect values to appear. Refer to information at About Latest Weather Observations and please check the disclaimer before using these data.